createdAt,value
2022-11-16T00:01:41.070Z,70.92
2022-11-16T00:04:45.395Z,71.39
2022-11-16T00:07:49.809Z,70.80
2022-11-16T00:10:54.565Z,69.98
2022-11-16T00:13:58.890Z,69.37
2022-11-16T00:17:04.227Z,70.94
2022-11-16T00:20:09.210Z,70.96
2022-11-16T00:23:13.863Z,70.68
2022-11-16T00:26:18.437Z,70.92
2022-11-16T00:29:25.035Z,70.23
2022-11-16T00:32:30.088Z,69.81
2022-11-16T00:35:38.788Z,69.77
2022-11-16T00:38:43.725Z,69.92
2022-11-16T00:41:50.889Z,69.26
2022-11-16T00:44:55.469Z,70.08
2022-11-16T00:48:00.744Z,69.83
2022-11-16T00:51:05.767Z,70.66
2022-11-16T00:54:10.570Z,71.35
2022-11-16T00:57:15.833Z,70.58
2022-11-16T01:00:22.078Z,69.80
2022-11-16T01:03:27.763Z,69.87
2022-11-16T01:06:32.014Z,68.73
2022-11-16T01:09:37.612Z,68.38
2022-11-16T01:12:42.534Z,69.93
2022-11-16T01:15:50.188Z,68.49
2022-11-16T01:18:56.368Z,69.25
2022-11-16T01:22:01.119Z,70.46
2022-11-16T01:25:06.765Z,70.51
2022-11-16T01:28:10.889Z,69.66
2022-11-16T01:31:25.218Z,69.27
2022-11-16T01:34:29.790Z,69.70
2022-11-16T01:37:41.960Z,69.33
2022-11-16T01:40:46.751Z,68.48
2022-11-16T01:43:54.352Z,69.26
2022-11-16T01:47:11.399Z,67.80
2022-11-16T01:50:19.536Z,67.55
2022-11-16T01:53:26.848Z,66.31
2022-11-16T01:56:36.745Z,67.36
2022-11-16T01:59:50.234Z,67.40
2022-11-16T02:02:57.189Z,68.56
2022-11-16T02:06:27.766Z,67.49
2022-11-16T02:09:55.742Z,67.22
2022-11-16T02:13:34.662Z,66.35
2022-11-16T02:16:58.836Z,66.11
2022-11-16T02:20:44.699Z,65.98
2022-11-16T02:24:04.440Z,66.92
2022-11-16T02:27:29.474Z,66.40
2022-11-16T02:30:34.459Z,67.17
2022-11-16T02:33:42.471Z,67.38
2022-11-16T02:36:50.120Z,67.10
2022-11-16T02:39:59.190Z,66.00
2022-11-16T02:43:22.579Z,65.97
2022-11-16T02:46:37.354Z,66.72
2022-11-16T02:49:49.991Z,65.45
2022-11-16T02:52:54.409Z,65.37
2022-11-16T02:56:01.131Z,65.96
2022-11-16T02:59:05.472Z,65.17
2022-11-16T03:02:31.832Z,64.41
2022-11-16T03:06:13.697Z,64.17
2022-11-16T03:09:32.450Z,62.96
2022-11-16T03:12:39.499Z,63.32
2022-11-16T03:15:45.263Z,63.08
2022-11-16T03:18:54.388Z,63.49
2022-11-16T03:22:11.264Z,61.64
2022-11-16T03:25:19.951Z,62.98
2022-11-16T03:28:48.168Z,62.95
2022-11-16T03:31:58.496Z,62.84
2022-11-16T03:35:12.574Z,61.64
2022-11-16T03:38:18.645Z,63.51
2022-11-16T03:41:25.564Z,62.21
2022-11-16T03:44:32.077Z,62.32
2022-11-16T03:47:36.528Z,62.17
2022-11-16T03:50:42.367Z,62.76
2022-11-16T03:53:46.952Z,62.58
2022-11-16T03:56:51.354Z,63.52
2022-11-16T03:59:55.667Z,62.71
2022-11-16T04:03:00.151Z,61.27
2022-11-16T04:06:23.649Z,60.03
2022-11-16T04:09:46.361Z,60.19
2022-11-16T04:13:09.282Z,59.73
2022-11-16T04:16:32.629Z,60.37
2022-11-16T04:19:58.299Z,59.00
2022-11-16T04:23:30.538Z,60.15
2022-11-16T04:26:54.584Z,60.43
2022-11-16T04:30:01.163Z,60.50
2022-11-16T04:33:28.752Z,61.41
2022-11-16T04:36:51.413Z,61.69
2022-11-16T04:39:56.281Z,60.42
2022-11-16T04:43:04.214Z,61.04
2022-11-16T04:46:34.612Z,61.04
2022-11-16T04:49:39.433Z,61.13
2022-11-16T04:52:44.688Z,62.39
2022-11-16T04:55:54.380Z,60.87
2022-11-16T04:59:01.129Z,60.80
2022-11-16T05:02:09.040Z,61.57
2022-11-16T05:05:30.575Z,62.07
2022-11-16T05:08:36.876Z,62.10
2022-11-16T05:11:42.614Z,62.29
2022-11-16T05:14:48.358Z,60.43
2022-11-16T05:17:56.494Z,61.29
2022-11-16T05:21:02.556Z,61.52
2022-11-16T05:24:32.285Z,61.67
2022-11-16T05:27:38.899Z,61.75
2022-11-16T05:30:47.608Z,61.65
2022-11-16T05:33:56.363Z,61.97
2022-11-16T05:37:02.179Z,62.34
2022-11-16T05:40:08.351Z,62.41
2022-11-16T05:43:28.012Z,61.41
2022-11-16T05:46:47.524Z,61.33
2022-11-16T05:49:53.948Z,61.57
2022-11-16T05:52:59.526Z,60.92
2022-11-16T05:56:05.361Z,61.77
2022-11-16T05:59:17.677Z,61.22
2022-11-16T06:02:23.544Z,59.60
2022-11-16T06:05:28.361Z,59.93
2022-11-16T06:08:34.612Z,60.06
2022-11-16T06:11:43.106Z,59.43
2022-11-16T06:14:47.710Z,59.20
2022-11-16T06:17:52.178Z,59.35
2022-11-16T06:20:57.869Z,57.16
2022-11-16T06:24:03.665Z,59.21
2022-11-16T06:27:07.971Z,59.02
2022-11-16T06:30:13.810Z,58.46
2022-11-16T06:33:18.486Z,58.95
2022-11-16T06:36:23.003Z,58.98
2022-11-16T06:39:27.307Z,58.69
2022-11-16T06:42:32.857Z,59.58
2022-11-16T06:45:38.596Z,58.52
2022-11-16T06:48:43.216Z,58.61
2022-11-16T06:51:50.460Z,57.66
2022-11-16T06:54:54.806Z,57.23
2022-11-16T06:57:59.282Z,57.29
2022-11-16T07:01:08.231Z,57.90
2022-11-16T07:04:16.772Z,58.20
2022-11-16T07:07:27.766Z,58.39
2022-11-16T07:10:33.076Z,58.88
2022-11-16T07:13:38.876Z,58.86
2022-11-16T07:16:45.817Z,58.98
2022-11-16T07:19:50.102Z,59.32
2022-11-16T07:22:54.928Z,59.54
2022-11-16T07:26:03.856Z,60.02
2022-11-16T07:29:32.432Z,61.17
2022-11-16T07:33:09.922Z,61.93
2022-11-16T07:36:32.894Z,61.52
2022-11-16T07:39:37.538Z,62.01
2022-11-16T07:42:46.978Z,61.15
2022-11-16T07:49:39.503Z,60.36
2022-11-16T07:52:50.994Z,60.84
2022-11-16T07:55:59.744Z,60.64
2022-11-16T07:59:07.355Z,60.21
2022-11-16T08:02:17.003Z,59.71
2022-11-16T08:05:21.761Z,59.92
2022-11-16T08:08:28.800Z,59.89
2022-11-16T08:11:33.674Z,59.97
2022-11-16T08:14:38.255Z,59.75
2022-11-16T08:17:43.041Z,59.75
2022-11-16T08:20:49.876Z,60.29
2022-11-16T08:23:58.309Z,60.28
2022-11-16T08:27:03.811Z,60.33
2022-11-16T08:30:10.663Z,60.63
2022-11-16T08:33:16.401Z,61.07
2022-11-16T08:36:21.812Z,61.69
2022-11-16T08:39:26.953Z,61.48
2022-11-16T08:42:31.772Z,60.72
2022-11-16T08:45:36.736Z,60.63
2022-11-16T08:48:41.903Z,60.75
2022-11-16T08:51:47.170Z,60.42
2022-11-16T08:54:51.850Z,60.40
2022-11-16T08:57:57.030Z,61.03
2022-11-16T09:01:07.490Z,62.13
2022-11-16T09:04:12.124Z,61.73
2022-11-16T09:07:16.546Z,61.71
2022-11-16T09:10:23.961Z,61.81
2022-11-16T09:13:29.444Z,62.30
2022-11-16T09:16:33.764Z,61.95
2022-11-16T09:19:41.728Z,60.97
2022-11-16T09:22:46.717Z,61.71
2022-11-16T09:25:51.734Z,62.79
2022-11-16T09:28:59.076Z,62.74
2022-11-16T09:32:03.976Z,62.51
2022-11-16T09:35:08.993Z,61.98
2022-11-16T09:38:20.677Z,62.23
2022-11-16T09:41:52.854Z,62.66
2022-11-16T09:45:01.334Z,61.83
2022-11-16T09:48:13.255Z,62.10
2022-11-16T09:51:19.829Z,62.51
2022-11-16T09:54:40.405Z,63.37
2022-11-16T09:57:46.495Z,63.81
2022-11-16T10:00:58.292Z,64.09
2022-11-16T10:04:21.157Z,64.41
2022-11-16T10:08:19.126Z,65.05
2022-11-16T10:11:39.057Z,65.51
2022-11-16T10:15:29.284Z,64.57
2022-11-16T10:18:47.627Z,65.92
2022-11-16T10:21:57.239Z,64.45
2022-11-16T10:25:09.923Z,65.55
2022-11-16T10:28:51.330Z,66.13
2022-11-16T10:32:06.777Z,65.33
2022-11-16T10:35:19.590Z,65.42
2022-11-16T10:38:32.054Z,65.24
2022-11-16T10:41:46.152Z,64.87
2022-11-16T10:45:05.266Z,65.08
2022-11-16T10:48:16.561Z,66.00
2022-11-16T10:51:21.481Z,65.18
2022-11-16T10:54:26.005Z,65.12
2022-11-16T10:58:03.292Z,65.85
2022-11-16T11:01:12.449Z,65.85
2022-11-16T11:04:24.446Z,65.57
2022-11-16T11:07:35.172Z,65.84
2022-11-16T11:10:44.931Z,65.35
2022-11-16T11:14:05.140Z,66.43
2022-11-16T11:17:15.556Z,66.22
2022-11-16T11:20:25.822Z,65.77
2022-11-16T11:23:30.623Z,65.51
2022-11-16T11:26:42.299Z,66.48
2022-11-16T11:29:54.949Z,66.16
2022-11-16T11:33:00.495Z,65.63
2022-11-16T11:36:10.976Z,65.95
2022-11-16T11:39:15.572Z,65.46
2022-11-16T11:42:24.041Z,65.72
2022-11-16T11:45:43.704Z,66.38
2022-11-16T11:49:12.274Z,65.55
2022-11-16T11:52:23.821Z,66.24
2022-11-16T11:55:28.733Z,65.53
2022-11-16T11:58:40.165Z,65.55
2022-11-16T12:02:17.052Z,65.30
2022-11-16T12:05:50.149Z,64.98
2022-11-16T12:09:32.188Z,65.60
2022-11-16T12:13:21.332Z,66.15
2022-11-16T12:16:35.409Z,66.74
2022-11-16T12:20:08.771Z,65.83
2022-11-16T12:23:25.631Z,65.68
2022-11-16T12:27:10.942Z,65.33
2022-11-16T12:30:31.955Z,66.15
2022-11-16T12:33:48.302Z,66.06
2022-11-16T12:36:55.686Z,65.84
2022-11-16T12:40:27.829Z,65.74
2022-11-16T12:43:53.482Z,66.34
2022-11-16T12:47:27.163Z,65.75
2022-11-16T12:51:26.410Z,65.82
2022-11-16T12:55:26.349Z,66.12
2022-11-16T12:58:53.542Z,66.89
2022-11-16T13:02:06.821Z,67.14
2022-11-16T13:05:32.634Z,66.67
2022-11-16T13:08:55.060Z,65.64
2022-11-16T13:12:06.491Z,65.85
2022-11-16T13:15:20.162Z,66.31
2022-11-16T13:18:26.565Z,66.55
2022-11-16T13:21:48.035Z,67.08
2022-11-16T13:25:44.675Z,66.88
2022-11-16T13:28:52.103Z,66.41
2022-11-16T13:32:37.215Z,67.03
2022-11-16T13:35:41.731Z,66.60
2022-11-16T13:39:06.593Z,66.74
2022-11-16T13:42:15.176Z,66.60
2022-11-16T13:45:23.053Z,66.39
2022-11-16T13:48:38.650Z,66.29
2022-11-16T13:51:53.117Z,65.27
2022-11-16T13:55:02.545Z,65.95
2022-11-16T13:58:10.326Z,66.51
2022-11-16T14:01:16.246Z,66.77
2022-11-16T14:04:34.937Z,67.28
2022-11-16T14:07:50.609Z,66.03
2022-11-16T14:10:58.881Z,66.89
2022-11-16T14:14:11.580Z,66.16
2022-11-16T14:17:50.702Z,66.74
2022-11-16T14:21:03.518Z,65.91
2022-11-16T14:24:20.106Z,65.63
2022-11-16T14:27:41.368Z,65.41
2022-11-16T14:31:16.623Z,65.07
2022-11-16T14:34:25.826Z,64.05
2022-11-16T14:37:41.698Z,64.61
2022-11-16T14:40:58.887Z,64.36
2022-11-16T14:44:04.644Z,64.23
2022-11-16T14:47:27.208Z,63.96
2022-11-16T14:50:36.700Z,65.04
2022-11-16T14:53:55.025Z,64.22
2022-11-16T14:57:05.959Z,64.52
2022-11-16T15:00:20.443Z,64.78
2022-11-16T15:03:29.334Z,64.55
2022-11-16T15:06:44.757Z,64.11
2022-11-16T15:09:53.242Z,63.74
2022-11-16T15:12:58.948Z,64.19
2022-11-16T15:16:31.485Z,64.74
2022-11-16T15:19:36.271Z,64.48
2022-11-16T15:22:46.661Z,65.19
2022-11-16T15:26:00.241Z,65.38
2022-11-16T15:29:04.988Z,65.40
2022-11-16T15:32:17.670Z,65.41
2022-11-16T15:35:34.427Z,65.07
2022-11-16T15:38:39.482Z,64.54
2022-11-16T15:41:44.882Z,65.34
2022-11-16T15:44:49.277Z,64.42
2022-11-16T15:47:54.919Z,64.48
2022-11-16T15:51:17.355Z,64.69
2022-11-16T15:54:24.576Z,65.09
2022-11-16T15:57:29.052Z,65.07
2022-11-16T16:00:37.250Z,64.62
2022-11-16T16:04:01.372Z,64.14
2022-11-16T16:07:06.124Z,64.06
2022-11-16T16:10:20.887Z,64.64
2022-11-16T16:13:30.237Z,63.85
2022-11-16T16:16:41.402Z,64.98
2022-11-16T16:20:06.937Z,64.15
2022-11-16T16:23:18.893Z,64.32
2022-11-16T16:26:24.446Z,65.08
2022-11-16T16:29:29.575Z,63.75
2022-11-16T16:32:36.153Z,64.06
2022-11-16T16:35:41.612Z,63.72
2022-11-16T16:38:46.123Z,64.03
2022-11-16T16:41:50.326Z,64.49
2022-11-16T16:44:54.917Z,64.51
2022-11-16T16:47:59.120Z,63.92
2022-11-16T16:51:04.879Z,64.20
2022-11-16T16:54:10.945Z,64.23
2022-11-16T16:57:19.101Z,64.75
2022-11-16T17:00:23.542Z,65.30
2022-11-16T17:03:27.782Z,65.16
2022-11-16T17:06:32.216Z,65.18
2022-11-16T17:09:36.595Z,65.05
2022-11-16T17:12:41.329Z,64.49
2022-11-16T17:15:45.834Z,65.19
2022-11-16T17:18:54.749Z,65.38
2022-11-16T17:21:59.269Z,64.75
2022-11-16T17:25:03.674Z,64.86
2022-11-16T17:28:08.217Z,64.63
2022-11-16T17:31:14.215Z,64.86
2022-11-16T17:34:18.439Z,65.37
2022-11-16T17:37:24.719Z,64.97
2022-11-16T17:40:28.807Z,65.30
2022-11-16T17:43:33.738Z,65.17
2022-11-16T17:46:38.004Z,64.67
2022-11-16T17:49:42.385Z,64.96
2022-11-16T17:52:47.413Z,64.09
2022-11-16T17:55:52.614Z,64.38
2022-11-16T17:58:59.236Z,64.29
2022-11-16T18:02:04.830Z,64.43
2022-11-16T18:05:10.768Z,65.59
2022-11-16T18:08:15.231Z,65.44
2022-11-16T18:11:22.230Z,64.95
2022-11-16T18:14:27.822Z,65.31
2022-11-16T18:17:32.734Z,65.53
2022-11-16T18:20:38.856Z,65.76
2022-11-16T18:23:44.149Z,65.14
2022-11-16T18:26:49.689Z,65.50
2022-11-16T18:29:54.052Z,65.53
2022-11-16T18:32:58.245Z,64.98
2022-11-16T18:36:03.817Z,64.99
2022-11-16T18:39:08.088Z,65.40
2022-11-16T18:42:13.797Z,65.39
2022-11-16T18:45:18.509Z,65.97
2022-11-16T18:48:23.060Z,65.87
2022-11-16T18:51:29.201Z,66.07
2022-11-16T18:54:34.421Z,65.60
2022-11-16T18:57:38.814Z,65.78
2022-11-16T19:00:43.289Z,65.70
2022-11-16T19:03:48.194Z,65.52
2022-11-16T19:06:52.777Z,65.85
2022-11-16T19:09:56.954Z,65.71
2022-11-16T19:13:01.078Z,65.46
2022-11-16T19:16:07.854Z,65.26
2022-11-16T19:19:12.202Z,65.50
2022-11-16T19:22:16.602Z,65.21
2022-11-16T19:25:21.110Z,65.63
2022-11-16T19:28:25.681Z,65.44
2022-11-16T19:31:33.220Z,66.04
2022-11-16T19:34:37.677Z,65.55
2022-11-16T19:37:41.986Z,65.02
2022-11-16T19:40:46.282Z,65.90
2022-11-16T19:43:53.536Z,65.70
2022-11-16T19:46:58.135Z,65.37
2022-11-16T19:50:02.681Z,65.23
2022-11-16T19:53:06.981Z,66.14
2022-11-16T19:56:13.306Z,65.87
2022-11-16T19:59:18.540Z,65.68
2022-11-16T20:02:22.635Z,65.67
2022-11-16T20:05:27.258Z,65.50
2022-11-16T20:08:31.614Z,66.02
2022-11-16T20:11:38.034Z,66.32
2022-11-16T20:14:42.461Z,65.86
2022-11-16T20:17:46.880Z,66.67
2022-11-16T20:20:51.296Z,66.49
2022-11-16T20:24:05.820Z,66.52
2022-11-16T20:27:10.863Z,67.17
2022-11-16T20:30:15.363Z,67.08
2022-11-16T20:33:20.099Z,66.77
2022-11-16T20:36:26.779Z,67.85
2022-11-16T20:39:31.233Z,68.44
2022-11-16T20:42:35.503Z,68.23
2022-11-16T20:45:40.049Z,70.14
2022-11-16T20:48:45.389Z,70.44
2022-11-16T20:51:51.453Z,69.55
2022-11-16T20:54:56.178Z,68.22
2022-11-16T20:58:00.473Z,68.00
2022-11-16T21:01:07.592Z,67.93
2022-11-16T21:04:12.008Z,69.88
2022-11-16T21:07:16.717Z,70.27
2022-11-16T21:10:21.071Z,69.15
2022-11-16T21:13:44.039Z,68.97
2022-11-16T21:16:48.305Z,68.89
2022-11-16T21:20:20.217Z,68.92
2022-11-16T21:23:17.004Z,68.01
2022-11-16T21:26:24.072Z,68.29
2022-11-16T21:29:28.962Z,67.73
2022-11-16T21:32:33.382Z,66.78
2022-11-16T21:35:37.674Z,66.54
2022-11-16T21:38:42.321Z,66.71
2022-11-16T21:41:46.636Z,65.89
2022-11-16T21:44:50.984Z,66.43
2022-11-16T21:47:55.369Z,66.36
2022-11-16T21:51:17.352Z,66.37
2022-11-16T21:54:21.511Z,66.74
2022-11-16T21:57:25.829Z,66.73
2022-11-16T22:00:30.621Z,66.12
2022-11-16T22:03:35.515Z,66.76
2022-11-16T22:06:58.619Z,66.32
2022-11-16T22:10:13.055Z,66.62
2022-11-16T22:13:17.324Z,66.37
2022-11-16T22:16:23.921Z,67.03
2022-11-16T22:19:28.324Z,67.67
2022-11-16T22:22:32.745Z,67.15
2022-11-16T22:25:38.062Z,67.40
2022-11-16T22:28:43.097Z,66.95
2022-11-16T22:31:48.089Z,66.30
2022-11-16T22:34:52.876Z,66.98
2022-11-16T22:37:57.674Z,66.66
2022-11-16T22:41:02.069Z,66.25
2022-11-16T22:44:06.851Z,66.88
2022-11-16T22:47:11.327Z,66.42
2022-11-16T22:50:15.882Z,67.17
2022-11-16T22:53:20.159Z,67.45
2022-11-16T22:56:25.192Z,67.14
2022-11-16T22:59:29.717Z,67.93
2022-11-16T23:02:33.950Z,67.27
2022-11-16T23:05:38.487Z,67.43
2022-11-16T23:08:42.961Z,67.07
2022-11-16T23:12:05.761Z,67.45
2022-11-16T23:15:32.336Z,66.98
2022-11-16T23:18:36.913Z,67.36
2022-11-16T23:21:59.971Z,67.96
2022-11-16T23:25:24.264Z,66.58
2022-11-16T23:28:28.663Z,66.82
2022-11-16T23:31:33.118Z,67.36
2022-11-16T23:34:37.760Z,66.88
2022-11-16T23:37:55.655Z,66.48
2022-11-16T23:41:20.232Z,65.95
2022-11-16T23:44:24.466Z,65.27
2022-11-16T23:47:29.198Z,64.74
2022-11-16T23:50:33.490Z,64.33
2022-11-16T23:53:38.200Z,64.00
2022-11-16T23:56:42.904Z,64.78
2022-11-16T23:59:47.367Z,64.13
